createdAt,value
2017-07-30T00:02:06.911Z,54.30
2017-07-30T00:04:33.374Z,55.00
2017-07-30T00:06:59.850Z,54.90
2017-07-30T00:09:26.346Z,54.40
2017-07-30T00:11:52.846Z,54.40
2017-07-30T00:14:20.321Z,54.00
2017-07-30T00:16:46.929Z,53.90
2017-07-30T00:19:13.529Z,54.30
2017-07-30T00:21:40.045Z,53.60
2017-07-30T00:24:06.544Z,53.90
2017-07-30T00:26:33.057Z,52.90
2017-07-30T00:28:59.509Z,53.30
2017-07-30T00:31:26.017Z,53.10
2017-07-30T00:33:52.496Z,52.60
2017-07-30T00:36:18.985Z,53.20
2017-07-30T00:38:45.504Z,52.90
2017-07-30T00:41:11.970Z,52.60
2017-07-30T00:43:38.440Z,52.50
2017-07-30T00:46:04.931Z,52.00
2017-07-30T00:48:31.409Z,52.40
2017-07-30T00:50:57.868Z,52.70
2017-07-30T00:53:24.342Z,52.60
2017-07-30T00:55:50.804Z,52.90
2017-07-30T00:58:17.327Z,52.70
2017-07-30T01:00:43.789Z,52.40
2017-07-30T01:03:10.433Z,52.50
2017-07-30T01:05:36.913Z,52.20
2017-07-30T01:08:03.293Z,51.70
2017-07-30T01:10:30.496Z,51.30
2017-07-30T01:12:57.071Z,50.90
2017-07-30T01:15:23.546Z,51.50
2017-07-30T01:17:50.049Z,52.10
2017-07-30T01:20:16.634Z,51.60
2017-07-30T01:22:43.172Z,51.30
2017-07-30T01:25:09.709Z,50.90
2017-07-30T01:27:36.943Z,52.20
2017-07-30T01:30:03.405Z,51.60
2017-07-30T01:32:29.881Z,51.00
2017-07-30T01:34:56.341Z,51.00
2017-07-30T01:37:22.909Z,51.30
2017-07-30T01:39:49.400Z,50.80
2017-07-30T01:42:15.901Z,50.80
2017-07-30T01:44:42.416Z,50.90
2017-07-30T01:47:08.954Z,50.70
2017-07-30T01:49:35.438Z,50.60
2017-07-30T01:52:02.702Z,50.80
2017-07-30T01:54:29.190Z,50.70
2017-07-30T01:56:55.695Z,50.20
2017-07-30T01:59:23.342Z,51.00
2017-07-30T02:04:22.858Z,51.00
2017-07-30T02:06:49.100Z,51.40
2017-07-30T02:09:15.374Z,50.80
2017-07-30T02:11:41.635Z,51.30
2017-07-30T02:14:07.931Z,51.70
2017-07-30T02:16:34.233Z,51.10
2017-07-30T02:19:00.515Z,50.70
2017-07-30T02:21:26.802Z,50.90
2017-07-30T02:23:53.078Z,50.90
2017-07-30T02:26:19.368Z,50.90
2017-07-30T02:28:45.625Z,51.20
2017-07-30T02:31:11.919Z,51.40
2017-07-30T02:33:38.955Z,52.30
2017-07-30T02:36:05.958Z,51.50
2017-07-30T02:38:32.250Z,51.50
2017-07-30T02:40:58.523Z,51.30
2017-07-30T02:43:25.761Z,51.90
2017-07-30T02:45:52.739Z,51.50
2017-07-30T02:48:19.004Z,51.50
2017-07-30T02:50:45.278Z,52.20
2017-07-30T02:53:12.563Z,51.60
2017-07-30T02:55:38.842Z,51.70
2017-07-30T02:58:05.110Z,51.50
2017-07-30T03:00:31.392Z,51.60
2017-07-30T03:02:57.666Z,51.50
2017-07-30T03:05:24.154Z,51.50
2017-07-30T03:07:50.678Z,51.50
2017-07-30T03:10:17.155Z,51.50
2017-07-30T03:12:43.639Z,51.30
2017-07-30T03:15:10.153Z,51.80
2017-07-30T03:17:36.622Z,51.40
2017-07-30T03:20:03.065Z,51.40
2017-07-30T03:22:29.521Z,51.10
2017-07-30T03:24:56.001Z,52.30
2017-07-30T03:27:22.517Z,54.00
2017-07-30T03:29:49.038Z,54.60
2017-07-30T03:32:15.539Z,54.40
2017-07-30T03:34:42.069Z,56.00
2017-07-30T03:37:08.573Z,55.60
2017-07-30T03:39:35.821Z,56.20
2017-07-30T03:42:02.349Z,56.20
2017-07-30T03:44:29.054Z,57.50
2017-07-30T03:46:55.535Z,57.60
2017-07-30T03:49:22.056Z,56.70
2017-07-30T03:51:48.660Z,57.50
2017-07-30T03:54:15.218Z,57.80
2017-07-30T03:56:42.438Z,58.00
2017-07-30T03:59:08.977Z,57.90
2017-07-30T04:01:35.489Z,57.70
2017-07-30T04:04:02.006Z,57.60
2017-07-30T04:06:28.518Z,57.90
2017-07-30T04:08:55.048Z,57.60
2017-07-30T04:11:21.526Z,57.80
2017-07-30T04:13:48.075Z,57.40
2017-07-30T04:16:14.579Z,58.00
2017-07-30T04:18:41.086Z,56.50
2017-07-30T04:21:07.610Z,56.50
2017-07-30T04:23:34.134Z,57.20
2017-07-30T04:26:00.642Z,56.60
2017-07-30T04:28:27.123Z,57.50
2017-07-30T04:30:54.370Z,56.80
2017-07-30T04:33:22.266Z,56.30
2017-07-30T04:35:48.808Z,56.30
2017-07-30T04:38:16.033Z,56.60
2017-07-30T04:40:42.562Z,55.90
2017-07-30T04:43:09.065Z,56.30
2017-07-30T04:45:35.577Z,55.30
2017-07-30T04:48:02.079Z,56.30
2017-07-30T04:50:28.572Z,55.70
2017-07-30T04:52:55.089Z,55.80
2017-07-30T04:55:21.562Z,55.70
2017-07-30T04:57:48.163Z,55.90
2017-07-30T05:00:14.657Z,54.30
2017-07-30T05:02:41.161Z,55.10
2017-07-30T05:05:07.649Z,55.00
2017-07-30T05:07:35.125Z,54.30
2017-07-30T05:10:01.612Z,54.30
2017-07-30T05:12:28.857Z,55.20
2017-07-30T05:14:55.368Z,55.90
2017-07-30T05:17:21.913Z,53.80
2017-07-30T05:19:48.661Z,54.80
2017-07-30T05:22:16.940Z,54.20
2017-07-30T05:24:43.489Z,54.80
2017-07-30T05:27:10.721Z,53.10
2017-07-30T05:29:37.181Z,53.10
2017-07-30T05:32:03.657Z,54.00
2017-07-30T05:34:30.157Z,54.30
2017-07-30T05:36:56.618Z,53.40
2017-07-30T05:39:23.914Z,51.40
2017-07-30T05:41:51.049Z,49.80
2017-07-30T05:44:17.560Z,49.80
2017-07-30T05:46:44.511Z,49.30
2017-07-30T05:49:10.978Z,49.60
2017-07-30T05:51:37.486Z,50.20
2017-07-30T05:54:03.993Z,49.40
2017-07-30T05:56:30.506Z,51.30
2017-07-30T05:58:57.735Z,50.30
2017-07-30T06:01:24.666Z,50.30
2017-07-30T06:03:51.173Z,51.20
2017-07-30T06:06:17.675Z,51.50
2017-07-30T06:08:44.109Z,52.50
2017-07-30T06:11:10.605Z,52.60
2017-07-30T06:13:37.078Z,52.80
2017-07-30T06:16:03.569Z,51.90
2017-07-30T06:18:30.090Z,51.00
2017-07-30T06:20:56.566Z,51.40
2017-07-30T06:23:23.033Z,51.50
2017-07-30T06:25:49.546Z,51.30
2017-07-30T06:28:16.079Z,51.00
2017-07-30T06:30:42.544Z,50.50
2017-07-30T06:33:09.021Z,50.60
2017-07-30T06:35:35.496Z,49.70
2017-07-30T06:38:02.022Z,49.60
2017-07-30T06:40:28.937Z,48.90
2017-07-30T06:42:55.421Z,48.30
2017-07-30T06:45:21.922Z,47.60
2017-07-30T06:47:48.453Z,47.70
2017-07-30T06:50:15.709Z,47.00
2017-07-30T06:52:42.197Z,46.80
2017-07-30T06:55:09.449Z,46.40
2017-07-30T06:57:35.885Z,46.40
2017-07-30T07:00:02.403Z,45.10
2017-07-30T07:02:29.437Z,45.50
2017-07-30T07:04:55.968Z,44.90
2017-07-30T07:07:22.454Z,45.20
2017-07-30T07:09:50.151Z,46.50
2017-07-30T07:12:16.671Z,46.30
2017-07-30T07:14:43.198Z,43.90
2017-07-30T07:17:09.664Z,44.60
2017-07-30T07:19:36.232Z,43.90
2017-07-30T07:22:02.763Z,43.30
2017-07-30T07:24:29.258Z,44.30
2017-07-30T07:26:55.769Z,43.90
2017-07-30T07:29:22.256Z,43.80
2017-07-30T07:31:49.530Z,45.50
2017-07-30T07:34:16.014Z,45.50
2017-07-30T07:36:43.247Z,46.50
2017-07-30T07:39:09.753Z,46.50
2017-07-30T07:41:36.250Z,47.10
2017-07-30T07:44:02.780Z,46.20
2017-07-30T07:46:29.421Z,46.50
2017-07-30T07:48:55.934Z,46.90
2017-07-30T07:51:23.278Z,47.20
2017-07-30T07:53:49.798Z,47.20
2017-07-30T07:56:17.305Z,46.90
2017-07-30T07:58:43.852Z,46.70
2017-07-30T08:01:10.359Z,46.80
2017-07-30T08:03:36.892Z,47.00
2017-07-30T08:06:03.513Z,48.00
2017-07-30T08:08:30.130Z,46.50
2017-07-30T08:10:57.040Z,45.70
2017-07-30T08:13:23.572Z,46.20
2017-07-30T08:15:50.093Z,45.60
2017-07-30T08:18:16.652Z,45.40
2017-07-30T08:20:43.169Z,45.10
2017-07-30T08:23:10.376Z,44.00
2017-07-30T08:25:37.635Z,44.00
2017-07-30T08:28:04.538Z,44.00
2017-07-30T08:30:31.049Z,44.10
2017-07-30T08:32:57.579Z,43.10
2017-07-30T08:35:24.122Z,42.70
2017-07-30T08:37:51.353Z,43.50
2017-07-30T08:40:17.833Z,43.60
2017-07-30T08:42:44.283Z,43.70
2017-07-30T08:45:10.777Z,43.40
2017-07-30T08:47:37.380Z,42.90
2017-07-30T08:50:03.933Z,42.00
2017-07-30T08:52:30.470Z,41.80
2017-07-30T08:54:56.973Z,41.80
2017-07-30T08:57:23.485Z,42.20
2017-07-30T08:59:49.976Z,42.20
2017-07-30T09:02:16.516Z,42.00
2017-07-30T09:04:43.038Z,41.70
2017-07-30T09:07:09.547Z,41.80
2017-07-30T09:09:36.043Z,42.10
2017-07-30T09:12:03.172Z,41.40
2017-07-30T09:14:29.674Z,40.70
2017-07-30T09:16:56.173Z,41.80
2017-07-30T09:19:23.448Z,40.60
2017-07-30T09:21:49.975Z,38.70
2017-07-30T09:24:16.474Z,40.10
2017-07-30T09:26:42.996Z,40.10
2017-07-30T09:29:09.574Z,38.70
2017-07-30T09:31:36.062Z,38.80
2017-07-30T09:34:02.600Z,38.70
2017-07-30T09:36:29.078Z,39.20
2017-07-30T09:38:55.637Z,39.60
2017-07-30T09:41:22.208Z,39.90
2017-07-30T09:43:49.443Z,39.10
2017-07-30T09:46:16.016Z,39.00
2017-07-30T09:48:42.545Z,39.00
2017-07-30T09:51:09.018Z,37.40
2017-07-30T09:53:35.610Z,38.20
2017-07-30T09:56:02.093Z,38.40
2017-07-30T09:58:28.639Z,38.60
2017-07-30T10:00:55.134Z,38.10
2017-07-30T10:03:21.775Z,36.90
2017-07-30T10:05:49.081Z,37.30
2017-07-30T10:08:15.561Z,35.80
2017-07-30T10:10:42.318Z,35.50
2017-07-30T10:13:08.986Z,35.80
2017-07-30T10:15:35.854Z,35.90
2017-07-30T10:18:02.377Z,33.70
2017-07-30T10:20:29.425Z,35.80
2017-07-30T10:22:56.673Z,34.30
2017-07-30T10:25:23.210Z,34.30
2017-07-30T10:27:49.689Z,34.60
2017-07-30T10:30:16.230Z,34.60
2017-07-30T10:32:42.719Z,34.20
2017-07-30T10:35:09.202Z,34.60
2017-07-30T10:37:35.693Z,34.50
2017-07-30T10:40:02.198Z,36.80
2017-07-30T10:42:29.167Z,36.70
2017-07-30T10:44:55.670Z,37.40
2017-07-30T10:47:22.185Z,37.40
2017-07-30T10:49:48.716Z,36.60
2017-07-30T10:52:15.231Z,37.20
2017-07-30T10:54:41.706Z,37.60
2017-07-30T10:57:33.432Z,36.10
2017-07-30T11:00:09.804Z,33.70
2017-07-30T11:02:40.501Z,33.50
2017-07-30T11:05:07.068Z,32.90
2017-07-30T11:07:34.438Z,30.20
2017-07-30T11:10:00.993Z,30.10
2017-07-30T11:12:27.473Z,30.50
2017-07-30T11:14:54.525Z,31.20
2017-07-30T11:17:20.891Z,30.80
2017-07-30T11:19:47.136Z,30.70
2017-07-30T11:22:14.234Z,30.50
2017-07-30T11:24:41.307Z,30.30
2017-07-30T11:27:08.314Z,30.00
2017-07-30T11:29:34.677Z,30.00
2017-07-30T11:32:00.927Z,30.30
2017-07-30T11:34:27.184Z,31.10
2017-07-30T11:36:53.552Z,29.90
2017-07-30T11:39:19.844Z,29.70
2017-07-30T11:41:46.201Z,29.60
2017-07-30T11:44:13.238Z,27.10
2017-07-30T11:46:39.527Z,27.10
2017-07-30T11:49:05.789Z,28.30
2017-07-30T11:51:32.140Z,26.70
2017-07-30T11:53:58.474Z,29.00
2017-07-30T11:56:24.784Z,27.20
2017-07-30T11:58:51.046Z,26.10
2017-07-30T12:01:17.367Z,26.20
2017-07-30T12:03:43.786Z,27.00
2017-07-30T12:06:10.203Z,27.90
2017-07-30T12:08:36.506Z,26.30
2017-07-30T12:11:03.038Z,25.70
2017-07-30T12:13:29.688Z,25.80
2017-07-30T12:15:56.157Z,27.30
2017-07-30T12:18:22.682Z,26.80
2017-07-30T12:20:49.327Z,26.80
2017-07-30T12:23:15.895Z,26.40
2017-07-30T12:25:42.410Z,25.70
2017-07-30T12:28:08.904Z,26.40
2017-07-30T12:30:35.434Z,27.00
2017-07-30T12:33:02.051Z,27.70
2017-07-30T12:35:35.657Z,26.50
2017-07-30T12:38:02.079Z,25.90
2017-07-30T12:40:29.386Z,26.00
2017-07-30T12:42:55.937Z,26.10
2017-07-30T12:45:22.453Z,26.10
2017-07-30T12:47:49.721Z,25.20
2017-07-30T12:50:16.319Z,25.10
2017-07-30T12:52:43.596Z,26.10
2017-07-30T12:55:10.074Z,25.80
2017-07-30T12:57:36.582Z,27.60
2017-07-30T13:00:03.885Z,26.10
2017-07-30T13:02:33.285Z,26.10
2017-07-30T13:04:59.852Z,24.60
2017-07-30T13:07:26.431Z,25.30
2017-07-30T13:09:53.061Z,24.50
2017-07-30T13:12:19.610Z,25.30
2017-07-30T13:14:46.833Z,24.20
2017-07-30T13:17:13.364Z,24.20
2017-07-30T13:19:39.899Z,25.40
2017-07-30T13:22:06.505Z,25.10
2017-07-30T13:24:33.028Z,24.90
2017-07-30T13:26:59.561Z,24.60
2017-07-30T13:29:26.113Z,24.80
2017-07-30T13:31:52.649Z,25.50
2017-07-30T13:34:19.147Z,25.00
2017-07-30T13:36:45.635Z,25.20
2017-07-30T13:39:12.149Z,25.30
2017-07-30T13:41:38.737Z,25.60
2017-07-30T13:44:05.288Z,26.00
2017-07-30T13:46:31.763Z,26.20
2017-07-30T13:48:58.245Z,25.90
2017-07-30T13:51:24.804Z,26.00
2017-07-30T13:53:55.821Z,26.00
2017-07-30T13:56:22.274Z,26.20
2017-07-30T13:58:48.891Z,26.90
2017-07-30T14:01:15.427Z,27.30
2017-07-30T14:03:42.663Z,27.90
2017-07-30T14:06:09.893Z,26.60
2017-07-30T14:08:36.384Z,26.50
2017-07-30T14:11:02.898Z,27.60
2017-07-30T14:13:29.346Z,26.10
2017-07-30T14:15:55.854Z,26.30
2017-07-30T14:18:22.329Z,25.90
2017-07-30T14:20:48.849Z,27.00
2017-07-30T14:23:15.318Z,26.40
2017-07-30T14:25:46.745Z,26.80
2017-07-30T14:28:13.250Z,27.10
2017-07-30T14:30:39.750Z,27.70
2017-07-30T14:33:06.250Z,26.50
2017-07-30T14:35:33.446Z,25.90
2017-07-30T14:37:59.938Z,25.80
2017-07-30T14:40:26.616Z,26.70
2017-07-30T14:42:53.122Z,26.00
2017-07-30T14:45:20.401Z,26.60
2017-07-30T14:47:46.873Z,26.60
2017-07-30T14:50:14.121Z,26.90
2017-07-30T14:52:41.378Z,27.40
2017-07-30T14:55:07.899Z,27.20
2017-07-30T14:57:34.479Z,26.70
2017-07-30T15:00:01.003Z,28.00
2017-07-30T15:02:27.511Z,27.40
2017-07-30T15:04:53.990Z,27.20
2017-07-30T15:07:20.531Z,28.50
2017-07-30T15:09:46.786Z,27.50
2017-07-30T15:12:17.915Z,27.70
2017-07-30T15:14:44.393Z,27.30
2017-07-30T15:17:10.662Z,28.90
2017-07-30T15:19:37.659Z,28.90
2017-07-30T15:22:03.975Z,28.80
2017-07-30T15:24:30.264Z,29.60
2017-07-30T15:26:56.552Z,28.30
2017-07-30T15:29:22.956Z,28.00
2017-07-30T15:31:49.532Z,28.20
2017-07-30T15:34:15.831Z,28.00
2017-07-30T15:36:42.124Z,28.00
2017-07-30T15:39:08.424Z,28.30
2017-07-30T15:41:34.724Z,28.00
2017-07-30T15:44:01.057Z,29.10
2017-07-30T15:46:27.419Z,29.30
2017-07-30T15:48:54.056Z,29.30
2017-07-30T15:51:21.478Z,29.40
2017-07-30T15:53:47.910Z,28.90
2017-07-30T15:56:15.779Z,28.00
2017-07-30T15:58:42.086Z,28.20
2017-07-30T16:01:13.458Z,28.60
2017-07-30T16:03:39.747Z,28.60
2017-07-30T16:06:06.045Z,28.40
2017-07-30T16:08:32.324Z,27.90
2017-07-30T16:10:58.614Z,28.80
2017-07-30T16:13:24.919Z,28.60
2017-07-30T16:18:22.834Z,28.20
2017-07-30T16:20:49.168Z,28.60
2017-07-30T16:23:16.189Z,28.20
2017-07-30T16:25:42.476Z,28.10
2017-07-30T16:28:08.777Z,28.20
2017-07-30T16:30:39.894Z,28.80
2017-07-30T16:33:06.210Z,29.30
2017-07-30T16:35:32.542Z,29.00
2017-07-30T16:37:58.853Z,30.10
2017-07-30T16:40:25.142Z,32.10
2017-07-30T16:42:52.725Z,32.10
2017-07-30T16:45:19.029Z,33.40
2017-07-30T16:47:49.558Z,33.90
2017-07-30T16:50:15.823Z,34.30
2017-07-30T16:52:46.251Z,34.50
2017-07-30T16:55:12.545Z,34.80
2017-07-30T16:57:38.829Z,35.20
2017-07-30T17:00:05.135Z,35.90
2017-07-30T17:02:31.423Z,35.50
2017-07-30T17:04:57.783Z,35.20
2017-07-30T17:07:24.115Z,34.80
2017-07-30T17:09:52.706Z,35.20
2017-07-30T17:12:19.285Z,35.30
2017-07-30T17:14:48.608Z,35.10
2017-07-30T17:17:15.013Z,36.00
2017-07-30T17:19:41.363Z,35.60
2017-07-30T17:22:07.887Z,35.70
2017-07-30T17:24:39.755Z,36.10
2017-07-30T17:27:06.983Z,37.30
2017-07-30T17:29:33.488Z,37.20
2017-07-30T17:32:00.051Z,37.30
2017-07-30T17:34:26.586Z,36.50
2017-07-30T17:36:53.170Z,36.00
2017-07-30T17:39:19.799Z,36.00
2017-07-30T17:41:46.309Z,36.80
2017-07-30T17:44:12.833Z,36.60
2017-07-30T17:46:39.501Z,37.40
2017-07-30T17:49:06.017Z,36.70
2017-07-30T17:51:32.521Z,36.40
2017-07-30T17:53:59.025Z,36.30
2017-07-30T17:56:25.515Z,36.30
2017-07-30T17:58:52.002Z,37.50
2017-07-30T18:01:18.548Z,37.20
2017-07-30T18:03:44.967Z,37.40
2017-07-30T18:06:11.554Z,37.90
2017-07-30T18:08:38.067Z,39.30
2017-07-30T18:11:04.698Z,39.80
2017-07-30T18:13:31.223Z,40.20
2017-07-30T18:15:57.709Z,40.30
2017-07-30T18:18:24.284Z,40.40
2017-07-30T18:20:58.036Z,40.80
2017-07-30T18:23:25.599Z,41.80
2017-07-30T18:25:52.200Z,41.30
2017-07-30T18:28:18.761Z,41.50
2017-07-30T18:30:45.191Z,42.00
2017-07-30T18:33:11.735Z,42.40
2017-07-30T18:35:38.230Z,41.70
2017-07-30T18:38:04.763Z,41.80
2017-07-30T18:40:31.378Z,42.40
2017-07-30T18:42:57.957Z,42.20
2017-07-30T18:45:24.499Z,42.20
2017-07-30T18:47:51.374Z,43.10
2017-07-30T18:50:17.884Z,43.20
2017-07-30T18:52:44.431Z,43.90
2017-07-30T18:55:11.453Z,44.20
2017-07-30T18:57:37.994Z,43.20
2017-07-30T19:00:04.523Z,43.00
2017-07-30T19:02:31.086Z,43.40
2017-07-30T19:04:58.436Z,44.10
2017-07-30T19:07:24.997Z,43.90
2017-07-30T19:09:51.841Z,43.90
2017-07-30T19:12:18.345Z,43.90
2017-07-30T19:14:44.924Z,43.90
2017-07-30T19:17:11.633Z,44.30
2017-07-30T19:19:38.218Z,44.30
2017-07-30T19:22:04.734Z,44.40
2017-07-30T19:24:31.378Z,44.90
2017-07-30T19:26:58.039Z,45.10
2017-07-30T19:29:24.690Z,44.90
2017-07-30T19:31:51.133Z,45.60
2017-07-30T19:34:17.788Z,45.60
2017-07-30T19:36:45.656Z,45.40
2017-07-30T19:39:12.915Z,46.00
2017-07-30T19:41:39.516Z,45.20
2017-07-30T19:44:06.198Z,45.60
2017-07-30T19:46:32.883Z,45.30
2017-07-30T19:48:59.713Z,44.80
2017-07-30T19:51:26.309Z,44.60
2017-07-30T19:53:53.642Z,44.60
2017-07-30T19:56:21.307Z,44.60
2017-07-30T19:58:47.967Z,45.10
2017-07-30T20:01:14.651Z,44.50
2017-07-30T20:03:41.070Z,45.00
2017-07-30T20:06:07.573Z,45.00
2017-07-30T20:08:34.257Z,44.40
2017-07-30T20:11:00.991Z,44.60
2017-07-30T20:13:27.612Z,44.30
2017-07-30T20:15:54.432Z,44.60
2017-07-30T20:18:21.105Z,45.10
2017-07-30T20:20:47.798Z,44.30
2017-07-30T20:23:14.293Z,44.90
2017-07-30T20:25:40.870Z,45.30
2017-07-30T20:28:08.047Z,45.30
2017-07-30T20:30:34.638Z,45.70
2017-07-30T20:33:01.302Z,47.10
2017-07-30T20:35:27.955Z,46.70
2017-07-30T20:37:54.619Z,47.70
2017-07-30T20:40:21.281Z,47.10
2017-07-30T20:42:48.008Z,47.10
2017-07-30T20:45:14.514Z,47.50
2017-07-30T20:47:41.255Z,48.00
2017-07-30T20:50:08.840Z,48.40
2017-07-30T20:52:35.409Z,48.20
2017-07-30T20:55:02.629Z,48.80
2017-07-30T20:57:29.468Z,48.80
2017-07-30T20:59:56.192Z,49.10
2017-07-30T21:02:22.709Z,49.00
2017-07-30T21:04:49.778Z,49.50
2017-07-30T21:07:17.377Z,50.20
2017-07-30T21:09:44.049Z,50.50
2017-07-30T21:12:11.310Z,50.50
2017-07-30T21:14:37.866Z,50.30
2017-07-30T21:17:04.789Z,50.10
2017-07-30T21:19:31.410Z,50.60
2017-07-30T21:21:57.970Z,50.90
2017-07-30T21:24:24.573Z,51.50
2017-07-30T21:26:51.285Z,51.60
2017-07-30T21:29:18.636Z,51.00
2017-07-30T21:31:45.526Z,51.10
2017-07-30T21:34:12.191Z,53.00
2017-07-30T21:36:38.897Z,53.10
2017-07-30T21:39:05.381Z,53.00
2017-07-30T21:41:31.935Z,52.50
2017-07-30T21:43:58.734Z,53.70
2017-07-30T21:46:25.559Z,53.50
2017-07-30T21:48:52.092Z,53.60
2017-07-30T21:51:18.650Z,52.50
2017-07-30T21:53:45.178Z,52.80
2017-07-30T21:56:12.430Z,52.90
2017-07-30T21:58:38.968Z,52.90
2017-07-30T22:01:05.563Z,52.50
2017-07-30T22:03:32.942Z,52.50
2017-07-30T22:05:59.906Z,52.20
2017-07-30T22:08:26.463Z,52.60
2017-07-30T22:10:54.008Z,53.30
2017-07-30T22:13:21.554Z,52.20
2017-07-30T22:15:48.867Z,52.10
2017-07-30T22:18:15.915Z,52.20
2017-07-30T22:20:42.489Z,52.20
2017-07-30T22:23:09.010Z,53.10
2017-07-30T22:25:35.533Z,53.50
2017-07-30T22:28:02.089Z,54.00
2017-07-30T22:30:33.097Z,53.10
2017-07-30T22:32:59.766Z,52.50
2017-07-30T22:35:26.336Z,53.00
2017-07-30T22:37:52.901Z,53.20
2017-07-30T22:40:19.515Z,53.20
2017-07-30T22:42:46.217Z,54.60
2017-07-30T22:45:12.820Z,53.70
2017-07-30T22:47:46.043Z,53.50
2017-07-30T22:50:12.653Z,53.10
2017-07-30T22:52:39.304Z,53.30
2017-07-30T22:55:05.841Z,52.90
2017-07-30T22:57:32.501Z,53.00
2017-07-30T22:59:59.029Z,52.90
2017-07-30T23:02:25.498Z,53.60
2017-07-30T23:04:51.991Z,53.40
2017-07-30T23:07:18.534Z,53.10
2017-07-30T23:09:45.068Z,54.30
2017-07-30T23:12:11.593Z,55.90
2017-07-30T23:14:38.116Z,55.80
2017-07-30T23:17:05.297Z,54.40
2017-07-30T23:19:31.832Z,54.40
2017-07-30T23:21:58.261Z,54.70
2017-07-30T23:24:24.702Z,56.60
2017-07-30T23:26:51.126Z,57.90
2017-07-30T23:29:18.358Z,59.40
2017-07-30T23:31:44.839Z,59.40
2017-07-30T23:34:11.312Z,60.50
2017-07-30T23:36:37.789Z,60.10
2017-07-30T23:39:04.329Z,60.80
2017-07-30T23:41:30.865Z,58.50
2017-07-30T23:43:58.134Z,60.30
2017-07-30T23:46:24.793Z,60.20
2017-07-30T23:48:51.265Z,59.30
2017-07-30T23:51:18.499Z,58.70
2017-07-30T23:53:45.010Z,58.80
2017-07-30T23:56:12.305Z,58.80
2017-07-30T23:58:38.826Z,59.40
